Narowal Weather



Narowal's Current Weather

Temprature 14.63o smoke

smoke

Rain: 0 %

Min Temprature13o
Max Temprature16o
Humidity59
Wind Speed4.1 m/h
Sun Rise06:57:35
Sun Set17:28:16
Current Time: 27-Jan-2020 18:42:40
Lat/Lon: 32.1, 74.88




Narowal's Geo Location



Narowal's Weather Forecast

Time Overall Temp Min Temp Max Temp Humidity Wind Speed Rain
27-Jan-2020 (Mon)
20:00:00 light rain 11.470 11.470 12.860 78 3.78 m/h 13 %
23:00:00 light rain 10.490 10.490 11.530 87 2.61 m/h 31 %
28-Jan-2020 (Tue)
02:00:00 light rain 10.520 10.520 11.220 88 5.81 m/h 106 %
05:00:00 light rain 10.300 10.300 10.650 92 3.64 m/h 206 %
08:00:00 light rain 10.970 10.970 10.970 93 3.69 m/h 225 %
11:00:00 moderate rain 12.230 12.230 12.230 93 3.79 m/h 356 %
14:00:00 moderate rain 11.740 11.740 11.740 97 3.2 m/h 556 %
17:00:00 moderate rain 11.540 11.540 11.540 98 2.46 m/h 963 %
20:00:00 moderate rain 11.180 11.180 11.180 95 2 m/h 350 %
23:00:00 light rain 10.910 10.910 10.910 97 1.05 m/h 256 %
29-Jan-2020 (Wed)
02:00:00 moderate rain 10.810 10.810 10.810 97 5.04 m/h 394 %
05:00:00 light rain 11.020 11.020 11.020 97 2.58 m/h 256 %
08:00:00 moderate rain 11.410 11.410 11.410 94 4.08 m/h 306 %
11:00:00 light rain 14.880 14.880 14.880 81 4.92 m/h 188 %
14:00:00 light rain 15.730 15.730 15.730 81 4.21 m/h 300 %
17:00:00 light rain 13.640 13.640 13.640 84 1.8 m/h 50 %
20:00:00 clear sky 10.070 10.070 10.070 88 0.63 m/h 0 %
23:00:00 clear sky 9.130 9.130 9.130 91 1.32 m/h 0 %
30-Jan-2020 (Thu)
02:00:00 clear sky 8.120 8.120 8.120 93 1.14 m/h 0 %
05:00:00 clear sky 7.110 7.110 7.110 94 0.39 m/h 0 %
08:00:00 clear sky 9.130 9.130 9.130 94 0.32 m/h 0 %
11:00:00 clear sky 15.110 15.110 15.110 75 0.3 m/h 0 %
14:00:00 clear sky 17.660 17.660 17.660 58 0.6 m/h 0 %
17:00:00 scattered clouds 14.280 14.280 14.280 68 0.88 m/h 0 %
20:00:00 few clouds 10.170 10.170 10.170 80 0.86 m/h 0 %
23:00:00 clear sky 9.010 9.010 9.010 84 1.21 m/h 0 %
31-Jan-2020 (Fri)
02:00:00 clear sky 8.120 8.120 8.120 85 1.11 m/h 0 %
05:00:00 clear sky 7.280 7.280 7.280 87 1.22 m/h 0 %
08:00:00 clear sky 9.150 9.150 9.150 84 0.48 m/h 0 %
11:00:00 clear sky 15.290 15.290 15.290 63 1.5 m/h 0 %
14:00:00 scattered clouds 17.330 17.330 17.330 55 2.28 m/h 0 %
17:00:00 broken clouds 14.320 14.320 14.320 68 1.5 m/h 0 %
20:00:00 overcast clouds 10.280 10.280 10.280 78 0.64 m/h 0 %
23:00:00 overcast clouds 9.350 9.350 9.350 79 0.78 m/h 0 %
01-Feb-2020 (Sat)
02:00:00 scattered clouds 8.090 8.090 8.090 83 0.9 m/h 0 %
05:00:00 few clouds 7.310 7.310 7.310 84 1.14 m/h 0 %
08:00:00 clear sky 9.430 9.430 9.430 80 0.34 m/h 0 %
11:00:00 clear sky 15.860 15.860 15.860 57 1.14 m/h 0 %
14:00:00 clear sky 17.890 17.890 17.890 51 2.26 m/h 0 %
17:00:00 clear sky 14.680 14.680 14.680 65 2.23 m/h 0 %

Famous Cities (61)